createdAt,value
2023-03-23T16:05:07.057Z,100024.28
2023-03-23T16:15:10.694Z,100039.09
2023-03-23T16:25:16.045Z,100045.31
2023-03-23T16:35:19.510Z,100064.84
2023-03-23T16:45:25.026Z,100057.94
2023-03-23T16:55:28.376Z,100027.84
2023-03-23T17:05:32.753Z,100018.56
2023-03-23T17:15:38.218Z,100022.25
2023-03-23T17:25:43.280Z,100011.78
2023-03-23T17:35:47.930Z,100010.38
2023-03-23T17:45:52.587Z,100001.19
2023-03-23T17:55:56.504Z,100013.03
2023-03-23T18:06:03.313Z,100001.31
2023-03-23T18:16:07.696Z,99990.06
2023-03-23T18:26:14.301Z,99974.50
2023-03-23T18:36:20.234Z,99969.25
2023-03-23T18:46:24.908Z,99947.44
2023-03-23T18:56:27.797Z,99953.22
2023-03-23T19:06:33.250Z,99944.13
2023-03-23T19:16:37.072Z,99934.44
2023-03-23T19:26:44.179Z,99918.47
2023-03-23T19:36:54.167Z,99907.72
2023-03-23T19:47:00.880Z,99900.69
2023-03-23T19:57:04.069Z,99898.28
2023-03-23T20:07:08.715Z,99887.25
2023-03-23T20:17:12.058Z,99875.38
2023-03-23T20:27:17.535Z,99862.38
2023-03-23T20:37:20.881Z,99839.59
2023-03-23T20:47:25.339Z,99848.06
2023-03-23T20:57:28.913Z,99825.31
2023-03-23T21:07:33.377Z,99818.59
2023-03-23T21:17:36.380Z,99793.13
2023-03-23T21:27:41.477Z,99803.44
2023-03-23T21:37:44.546Z,99796.19
2023-03-23T21:47:49.222Z,99798.94
2023-03-23T21:57:52.675Z,99774.97
2023-03-23T22:07:57.170Z,99765.00
2023-03-23T22:18:00.829Z,99739.34
2023-03-23T22:28:06.266Z,99721.81
2023-03-23T22:38:09.324Z,99707.88
2023-03-23T22:48:13.837Z,99696.41
2023-03-23T22:58:17.698Z,99696.09
2023-03-23T23:08:22.598Z,99651.16
2023-03-23T23:18:26.704Z,99645.88
2023-03-23T23:28:31.203Z,99645.69
2023-03-23T23:38:34.293Z,99619.41
2023-03-23T23:48:39.020Z,99613.75
2023-03-23T23:58:42.125Z,99601.69
